createdAt,value
2023-04-16T00:01:37.247Z,9.47
2023-04-16T00:05:01.520Z,9.33
2023-04-16T00:08:26.475Z,9.36
2023-04-16T00:11:48.119Z,9.36
2023-04-16T00:15:10.034Z,9.35
2023-04-16T00:18:33.686Z,9.27
2023-04-16T00:21:55.501Z,9.23
2023-04-16T00:25:17.146Z,9.20
2023-04-16T00:28:38.759Z,9.11
2023-04-16T00:32:03.253Z,9.06
2023-04-16T00:35:24.845Z,9.20
2023-04-16T00:38:46.445Z,9.12
2023-04-16T00:42:10.444Z,9.02
2023-04-16T00:45:32.244Z,9.11
2023-04-16T00:48:54.449Z,8.98
2023-04-16T00:52:18.317Z,9.12
2023-04-16T00:55:40.798Z,9.20
2023-04-16T00:59:02.519Z,9.23
2023-04-16T01:02:24.647Z,9.04
2023-04-16T01:05:49.453Z,8.89
2023-04-16T01:09:11.821Z,8.89
2023-04-16T01:12:33.413Z,8.89
2023-04-16T01:15:57.587Z,8.89
2023-04-16T01:19:19.416Z,8.92
2023-04-16T01:22:43.531Z,8.85
2023-04-16T01:26:05.160Z,8.78
2023-04-16T01:29:29.404Z,8.64
2023-04-16T01:32:51.618Z,8.63
2023-04-16T01:36:16.284Z,8.65
2023-04-16T01:39:37.974Z,8.99
2023-04-16T01:42:59.608Z,8.87
2023-04-16T01:46:29.627Z,8.77
2023-04-16T01:49:51.460Z,8.70
2023-04-16T01:53:13.058Z,8.57
2023-04-16T01:56:36.855Z,8.57
2023-04-16T01:59:58.513Z,8.47
2023-04-16T02:03:20.513Z,8.47
2023-04-16T02:06:44.687Z,8.47
2023-04-16T02:10:07.548Z,8.41
2023-04-16T02:13:29.152Z,8.43
2023-04-16T02:16:53.000Z,8.49
2023-04-16T02:20:17.757Z,8.49
2023-04-16T02:23:41.088Z,8.77
2023-04-16T02:27:07.570Z,8.56
2023-04-16T02:30:29.134Z,8.43
2023-04-16T02:33:51.050Z,8.36
2023-04-16T02:37:12.647Z,8.54
2023-04-16T02:40:34.679Z,8.30
2023-04-16T02:43:56.755Z,8.26
2023-04-16T02:47:18.372Z,8.36
2023-04-16T02:50:40.019Z,8.36
2023-04-16T02:54:03.118Z,8.47
2023-04-16T02:57:27.145Z,8.26
2023-04-16T03:00:50.993Z,8.19
2023-04-16T03:04:12.665Z,8.06
2023-04-16T03:07:36.668Z,8.07
2023-04-16T03:11:00.853Z,8.03
2023-04-16T03:14:22.514Z,8.12
2023-04-16T03:17:44.133Z,8.02
2023-04-16T03:21:06.001Z,8.10
2023-04-16T03:24:29.996Z,7.98
2023-04-16T03:27:51.668Z,7.93
2023-04-16T03:31:18.549Z,7.88
2023-04-16T03:34:40.593Z,7.86
2023-04-16T03:38:02.227Z,7.95
2023-04-16T03:41:23.965Z,8.01
2023-04-16T03:44:45.662Z,8.02
2023-04-16T03:48:07.342Z,8.03
2023-04-16T03:51:31.402Z,8.09
2023-04-16T03:54:53.014Z,8.10
2023-04-16T03:58:14.589Z,8.14
2023-04-16T04:01:38.493Z,7.99
2023-04-16T04:05:05.293Z,7.91
2023-04-16T04:08:27.020Z,7.95
2023-04-16T04:11:48.600Z,8.07
2023-04-16T04:15:10.954Z,8.20
2023-04-16T04:18:34.691Z,8.23
2023-04-16T04:21:56.381Z,8.17
2023-04-16T04:25:20.749Z,8.16
2023-04-16T04:28:42.375Z,8.29
2023-04-16T04:32:04.151Z,8.22
2023-04-16T04:35:28.343Z,8.36
2023-04-16T04:38:52.812Z,8.44
2023-04-16T04:42:20.162Z,8.44
2023-04-16T04:45:44.512Z,8.34
2023-04-16T04:49:08.764Z,8.30
2023-04-16T04:52:30.628Z,8.34
2023-04-16T04:55:54.198Z,8.59
2023-04-16T04:59:20.884Z,8.50
2023-04-16T05:02:42.758Z,8.71
2023-04-16T05:06:04.572Z,8.64
2023-04-16T05:09:28.404Z,8.56
2023-04-16T05:12:52.208Z,8.64
2023-04-16T05:16:16.408Z,8.70
2023-04-16T05:19:40.483Z,8.67
2023-04-16T05:23:06.592Z,8.71
2023-04-16T05:26:33.055Z,8.65
2023-04-16T05:29:54.634Z,8.74
2023-04-16T05:33:18.243Z,8.74
2023-04-16T05:36:39.895Z,8.91
2023-04-16T05:40:01.490Z,8.91
2023-04-16T05:43:24.514Z,8.93
2023-04-16T05:46:46.108Z,9.11
2023-04-16T05:50:10.635Z,9.09
2023-04-16T05:53:32.201Z,9.20
2023-04-16T05:56:53.806Z,9.16
2023-04-16T06:00:15.512Z,9.32
2023-04-16T06:03:37.201Z,9.37
2023-04-16T06:07:01.552Z,9.36
2023-04-16T06:10:25.777Z,9.48
2023-04-16T06:13:47.433Z,9.54
2023-04-16T06:17:09.032Z,9.63
2023-04-16T06:20:30.848Z,9.88
2023-04-16T06:23:52.606Z,10.14
2023-04-16T06:27:14.146Z,10.35
2023-04-16T06:30:39.071Z,10.29
2023-04-16T06:34:03.600Z,10.25
2023-04-16T06:37:25.429Z,10.29
2023-04-16T06:40:51.028Z,10.43
2023-04-16T06:44:15.035Z,10.66
2023-04-16T06:47:36.653Z,10.83
2023-04-16T06:50:58.341Z,10.93
2023-04-16T06:54:20.187Z,11.04
2023-04-16T06:57:44.258Z,11.38
2023-04-16T07:01:06.076Z,11.70
2023-04-16T07:04:29.743Z,11.76
2023-04-16T07:07:51.297Z,12.03
2023-04-16T07:11:13.521Z,12.03
2023-04-16T07:14:35.104Z,12.68
2023-04-16T07:17:56.762Z,13.11
2023-04-16T07:21:18.431Z,13.71
2023-04-16T07:24:40.085Z,13.86
2023-04-16T07:28:04.205Z,13.76
2023-04-16T07:31:28.069Z,13.53
2023-04-16T07:34:49.652Z,13.54
2023-04-16T07:38:11.364Z,13.37
2023-04-16T07:41:33.453Z,13.27
2023-04-16T07:44:55.459Z,13.21
2023-04-16T07:48:19.494Z,13.64
2023-04-16T07:51:46.977Z,13.65
2023-04-16T07:55:09.323Z,13.75
2023-04-16T07:58:33.028Z,13.90
2023-04-16T08:01:56.901Z,13.92
2023-04-16T08:05:18.661Z,13.85
2023-04-16T08:08:42.805Z,13.82
2023-04-16T08:12:04.697Z,14.29
2023-04-16T08:15:26.639Z,14.71
2023-04-16T08:18:51.016Z,14.74
2023-04-16T08:22:13.538Z,14.92
2023-04-16T08:25:38.425Z,14.88
2023-04-16T08:28:59.997Z,14.92
2023-04-16T08:32:24.713Z,15.00
2023-04-16T08:35:46.317Z,15.08
2023-04-16T08:39:10.929Z,15.27
2023-04-16T08:42:38.912Z,15.61
2023-04-16T08:46:01.412Z,15.68
2023-04-16T08:49:26.996Z,15.42
2023-04-16T08:53:03.975Z,15.51
2023-04-16T08:56:26.597Z,15.83
2023-04-16T08:59:48.810Z,15.66
2023-04-16T09:03:12.966Z,14.91
2023-04-16T09:06:36.523Z,14.52
2023-04-16T09:10:00.072Z,14.51
2023-04-16T09:13:24.890Z,14.48
2023-04-16T09:16:49.525Z,14.45
2023-04-16T09:20:11.346Z,14.52
2023-04-16T09:23:38.452Z,14.68
2023-04-16T09:27:01.086Z,14.81
2023-04-16T09:30:24.167Z,14.72
2023-04-16T09:34:09.082Z,14.87
2023-04-16T09:37:33.724Z,14.98
2023-04-16T09:41:08.644Z,15.15
2023-04-16T09:44:38.513Z,15.33
2023-04-16T09:48:05.189Z,15.60
2023-04-16T09:51:37.340Z,16.30
2023-04-16T09:55:00.192Z,16.92
2023-04-16T09:58:24.676Z,16.77
2023-04-16T10:01:57.333Z,16.77
2023-04-16T10:05:35.123Z,16.87
2023-04-16T10:08:57.278Z,17.10
2023-04-16T10:12:21.988Z,17.19
2023-04-16T10:15:48.371Z,17.22
2023-04-16T10:19:10.421Z,17.25
2023-04-16T10:22:34.963Z,17.89
2023-04-16T10:25:58.378Z,18.55
2023-04-16T10:29:21.343Z,18.82
2023-04-16T10:32:46.490Z,19.27
2023-04-16T10:36:19.020Z,19.68
2023-04-16T10:39:40.705Z,19.90
2023-04-16T10:43:07.192Z,20.06
2023-04-16T10:46:39.086Z,20.45
2023-04-16T10:50:19.446Z,20.77
2023-04-16T10:53:41.197Z,20.92
2023-04-16T10:57:16.320Z,21.26
2023-04-16T11:00:52.747Z,21.26
2023-04-16T11:04:20.301Z,21.26
2023-04-16T11:07:49.611Z,21.30
2023-04-16T11:11:12.242Z,20.88
2023-04-16T11:14:33.975Z,21.47
2023-04-16T11:17:58.011Z,21.91
2023-04-16T11:21:20.118Z,21.77
2023-04-16T11:24:41.769Z,21.33
2023-04-16T11:28:05.388Z,21.29
2023-04-16T11:31:27.439Z,21.18
2023-04-16T11:34:49.154Z,20.98
2023-04-16T11:38:13.060Z,20.70
2023-04-16T11:41:34.656Z,20.70
2023-04-16T11:45:00.639Z,20.20
2023-04-16T11:48:22.274Z,20.06
2023-04-16T11:51:47.557Z,19.93
2023-04-16T11:55:09.300Z,19.89
2023-04-16T11:58:33.129Z,19.82
2023-04-16T12:02:00.851Z,19.44
2023-04-16T12:05:35.376Z,19.32
2023-04-16T12:08:56.956Z,19.04
2023-04-16T12:12:34.853Z,19.07
2023-04-16T12:15:57.190Z,19.03
2023-04-16T12:19:18.924Z,18.85
2023-04-16T12:22:44.591Z,18.70
2023-04-16T12:26:12.545Z,18.70
2023-04-16T12:29:34.202Z,18.73
2023-04-16T12:33:16.599Z,18.85
2023-04-16T12:36:43.397Z,19.35
2023-04-16T12:40:06.283Z,19.81
2023-04-16T12:43:30.191Z,20.17
2023-04-16T12:46:54.161Z,20.48
2023-04-16T12:50:15.706Z,20.63
2023-04-16T12:53:39.514Z,20.27
2023-04-16T12:57:03.578Z,20.09
2023-04-16T13:00:25.497Z,19.92
2023-04-16T13:03:49.847Z,19.71
2023-04-16T13:07:11.587Z,19.78
2023-04-16T13:10:33.268Z,19.81
2023-04-16T13:13:54.953Z,19.75
2023-04-16T13:17:16.539Z,19.71
2023-04-16T13:20:41.570Z,19.54
2023-04-16T13:24:03.390Z,19.47
2023-04-16T13:27:27.184Z,19.47
2023-04-16T13:30:48.897Z,19.55
2023-04-16T13:34:10.774Z,19.79
2023-04-16T13:37:32.425Z,19.76
2023-04-16T13:40:54.094Z,19.82
2023-04-16T13:44:15.658Z,19.90
2023-04-16T13:47:41.623Z,19.87
2023-04-16T13:51:06.124Z,19.69
2023-04-16T13:54:30.028Z,19.50
2023-04-16T13:57:53.321Z,19.44
2023-04-16T14:01:15.037Z,19.17
2023-04-16T14:04:36.746Z,19.06
2023-04-16T14:07:58.325Z,18.92
2023-04-16T14:11:19.876Z,18.77
2023-04-16T14:14:42.163Z,18.69
2023-04-16T14:18:04.118Z,18.70
2023-04-16T14:21:27.059Z,18.77
2023-04-16T14:24:48.614Z,18.75
2023-04-16T14:28:10.716Z,18.88
2023-04-16T14:31:35.048Z,18.86
2023-04-16T14:34:57.405Z,19.04
2023-04-16T14:38:19.034Z,18.97
2023-04-16T14:41:41.211Z,18.66
2023-04-16T14:45:06.358Z,18.62
2023-04-16T14:48:28.247Z,18.65
2023-04-16T14:51:49.917Z,18.48
2023-04-16T14:55:11.556Z,18.58
2023-04-16T14:58:33.155Z,18.83
2023-04-16T15:01:56.880Z,19.11
2023-04-16T15:05:20.922Z,19.32
2023-04-16T15:08:47.571Z,19.37
2023-04-16T15:12:09.272Z,19.41
2023-04-16T15:15:33.430Z,19.38
2023-04-16T15:18:57.840Z,19.21
2023-04-16T15:22:19.475Z,18.97
2023-04-16T15:25:45.638Z,18.89
2023-04-16T15:29:09.561Z,18.73
2023-04-16T15:32:33.558Z,18.75
2023-04-16T15:35:59.673Z,18.86
2023-04-16T15:39:21.689Z,19.02
2023-04-16T15:42:43.455Z,19.02
2023-04-16T15:46:05.243Z,18.97
2023-04-16T15:49:27.108Z,18.80
2023-04-16T15:52:48.828Z,18.59
2023-04-16T15:56:10.612Z,18.44
2023-04-16T15:59:32.775Z,18.42
2023-04-16T16:02:54.553Z,18.22
2023-04-16T16:06:20.821Z,18.20
2023-04-16T16:09:42.824Z,18.17
2023-04-16T16:13:07.996Z,18.01
2023-04-16T16:16:29.678Z,17.96
2023-04-16T16:19:52.411Z,17.86
2023-04-16T16:23:14.004Z,17.73
2023-04-16T16:26:35.563Z,17.65
2023-04-16T16:29:57.244Z,17.72
2023-04-16T16:33:22.327Z,17.63
2023-04-16T16:36:48.719Z,17.57
2023-04-16T16:40:13.075Z,17.67
2023-04-16T16:43:37.692Z,17.52
2023-04-16T16:46:59.692Z,17.49
2023-04-16T16:50:24.025Z,17.52
2023-04-16T16:53:48.489Z,17.46
2023-04-16T16:57:10.152Z,17.38
2023-04-16T17:00:31.887Z,17.35
2023-04-16T17:03:53.956Z,17.31
2023-04-16T17:07:15.750Z,17.31
2023-04-16T17:10:40.045Z,17.21
2023-04-16T17:14:04.044Z,17.18
2023-04-16T17:17:28.912Z,17.10
2023-04-16T17:20:50.515Z,17.04
2023-04-16T17:24:12.438Z,16.98
2023-04-16T17:27:34.456Z,16.92
2023-04-16T17:31:01.703Z,16.85
2023-04-16T17:34:23.871Z,16.87
2023-04-16T17:37:47.552Z,16.83
2023-04-16T17:41:11.555Z,16.79
2023-04-16T17:44:35.233Z,16.74
2023-04-16T17:47:56.846Z,16.76
2023-04-16T17:51:21.134Z,16.87
2023-04-16T17:54:48.404Z,16.81
2023-04-16T17:58:10.133Z,16.71
2023-04-16T18:01:34.317Z,16.64
2023-04-16T18:04:58.805Z,16.55
2023-04-16T18:08:23.180Z,16.48
2023-04-16T18:11:45.250Z,16.39
2023-04-16T18:15:10.081Z,16.15
2023-04-16T18:18:34.312Z,16.22
2023-04-16T18:22:01.493Z,16.28
2023-04-16T18:25:32.230Z,16.28
2023-04-16T18:28:56.506Z,16.40
2023-04-16T18:32:21.770Z,16.19
2023-04-16T18:35:43.414Z,16.21
2023-04-16T18:39:05.015Z,16.06
2023-04-16T18:42:29.327Z,16.02
2023-04-16T18:45:51.334Z,15.94
2023-04-16T18:49:13.383Z,15.84
2023-04-16T18:52:35.881Z,16.00
2023-04-16T18:55:59.916Z,15.66
2023-04-16T18:59:21.860Z,15.75
2023-04-16T19:02:45.825Z,15.83
2023-04-16T19:06:07.805Z,15.78
2023-04-16T19:09:32.496Z,15.70
2023-04-16T19:12:57.376Z,15.73
2023-04-16T19:16:21.125Z,15.71
2023-04-16T19:19:47.362Z,15.71
2023-04-16T19:23:09.264Z,15.70
2023-04-16T19:26:31.063Z,15.60
2023-04-16T19:29:52.899Z,15.58
2023-04-16T19:33:14.565Z,15.51
2023-04-16T19:36:36.211Z,15.44
2023-04-16T19:39:57.832Z,15.42
2023-04-16T19:43:19.491Z,15.33
2023-04-16T19:46:41.208Z,15.33
2023-04-16T19:50:03.005Z,15.29
2023-04-16T19:53:25.168Z,15.25
2023-04-16T19:56:49.311Z,15.27
2023-04-16T20:00:18.153Z,15.30
2023-04-16T20:03:39.833Z,15.27
2023-04-16T20:07:01.486Z,15.23
2023-04-16T20:10:23.646Z,15.19
2023-04-16T20:13:48.808Z,15.16
2023-04-16T20:17:10.506Z,15.23
2023-04-16T20:20:35.689Z,15.19
2023-04-16T20:23:59.411Z,15.05
2023-04-16T20:27:26.024Z,15.08
2023-04-16T20:30:51.019Z,15.05
2023-04-16T20:34:12.870Z,14.98
2023-04-16T20:37:38.065Z,15.16
2023-04-16T20:41:10.404Z,15.25
2023-04-16T20:44:40.462Z,15.10
2023-04-16T20:48:02.459Z,15.02
2023-04-16T20:51:27.530Z,14.96
2023-04-16T20:54:52.236Z,15.03
2023-04-16T20:58:13.787Z,15.02
2023-04-16T21:01:35.557Z,14.95
2023-04-16T21:04:59.508Z,14.98
2023-04-16T21:08:24.890Z,14.91
2023-04-16T21:11:48.707Z,14.92
2023-04-16T21:15:13.113Z,14.88
2023-04-16T21:18:37.040Z,14.96
2023-04-16T21:21:58.628Z,14.93
2023-04-16T21:25:22.248Z,14.89
2023-04-16T21:28:43.857Z,14.82
2023-04-16T21:32:07.697Z,14.85
2023-04-16T21:35:34.080Z,14.85
2023-04-16T21:38:55.856Z,14.79
2023-04-16T21:42:17.498Z,14.77
2023-04-16T21:45:39.809Z,14.68
2023-04-16T21:49:01.452Z,14.77
2023-04-16T21:52:23.026Z,14.75
2023-04-16T21:55:44.772Z,14.67
2023-04-16T21:59:08.943Z,14.67
2023-04-16T22:02:34.101Z,14.67
2023-04-16T22:06:06.636Z,14.67
2023-04-16T22:09:28.231Z,14.65
2023-04-16T22:12:54.836Z,14.64
2023-04-16T22:16:19.247Z,14.58
2023-04-16T22:19:42.420Z,14.58
2023-04-16T22:23:04.005Z,14.48
2023-04-16T22:26:27.622Z,14.44
2023-04-16T22:29:51.514Z,14.47
2023-04-16T22:33:15.673Z,14.34
2023-04-16T22:36:39.908Z,14.29
2023-04-16T22:40:01.836Z,14.27
2023-04-16T22:43:25.804Z,14.24
2023-04-16T22:46:49.605Z,14.29
2023-04-16T22:50:13.592Z,14.20
2023-04-16T22:53:35.930Z,14.16
2023-04-16T22:56:58.430Z,14.16
2023-04-16T23:00:20.845Z,14.14
2023-04-16T23:03:42.486Z,14.20
2023-04-16T23:07:04.191Z,14.20
2023-04-16T23:10:25.961Z,14.23
2023-04-16T23:13:50.070Z,14.17
2023-04-16T23:17:16.967Z,14.22
2023-04-16T23:20:38.637Z,14.20
2023-04-16T23:24:00.246Z,14.23
2023-04-16T23:27:24.310Z,14.24
2023-04-16T23:30:48.882Z,14.26
2023-04-16T23:34:10.575Z,14.27
2023-04-16T23:37:34.941Z,14.30
2023-04-16T23:40:56.545Z,14.31
2023-04-16T23:44:18.168Z,14.38
2023-04-16T23:47:44.789Z,14.41
2023-04-16T23:51:06.534Z,14.40
2023-04-16T23:54:28.145Z,14.34
2023-04-16T23:57:50.103Z,14.43
